KPUJ

Details ICAO KPUJ
Name Paulding Northwest Atlanta
Region United States
Timezone America/New_York (UTC-4.0)
Plans Departing 3
Arriving 3
Stats Elevation 1,289 ft / 393 m (AMSL)
Location 33.912043° -84.940619°
Runways 1
Magnetic Variation 4.815° W
Sunrise 2018-05-23 10:34:56 UTC / 2018-05-23 06:34:56 Local
Sunset 2018-05-24 00:40:59 UTC / 2018-05-23 20:40:59 Local
Advertisement - Login to hide

Runways

ID Width Length Bearing (true) Bearing (mag) Surface Threshold Offset Overrun Length
13 100 ft / 30 m 5,504 ft / 1,678 m 127.57° 132.38° Concrete 0 ft / 0 m 0 ft / 0 m
31 100 ft / 30 m 5,504 ft / 1,678 m 307.58° 312.39° Concrete 0 ft / 0 m 0 ft / 0 m

Approach Navaids

Runway Type Ident Frequency Range Bearing (true) Bearing (mag) Slope Elevation
31 Localiser IPUJ 109.15 MHz 18 nm / 33 km 307.57° 312.39° - 1,289 ft / 393 m (AMSL)
31 Glidescope IPUJ 109.15 MHz 10 nm / 19 km 307.57° 312.39° 3.00° 1,289 ft / 393 m (AMSL)
31 DME IPUJ 109.15 MHz 18 nm / 33 km - - - 1,289 ft / 393 m (AMSL)

Map

Weather


0- 5 10 15 20 25 30 35+ Temperature / ° C

Clouds and Precipitation
Forecast for 2018-05-23 12:00 UTC. Updated 3 hours ago

Ground ~20,000 ft ~40,000 ft Winds

METAR

KPUJ 231335Z AUTO 34004KT 7SM OVC008 21/21 A3012 RMK AO2 LTG DSNT S

TAF

Not found
Warning: Do not use this data for real-world aviation or navigation. No guarantee of current accuracy is given.